createdAt,value
2023-01-23T00:01:40.380Z,102112.75
2023-01-23T00:06:43.753Z,102114.89
2023-01-23T00:11:46.332Z,102114.73
2023-01-23T00:16:48.958Z,102115.84
2023-01-23T00:21:51.542Z,102122.67
2023-01-23T00:26:54.181Z,102127.70
2023-01-23T00:31:56.814Z,102134.56
2023-01-23T00:36:59.478Z,102134.70
2023-01-23T00:42:02.085Z,102128.73
2023-01-23T00:47:06.291Z,102132.14
2023-01-23T00:52:08.924Z,102129.45
2023-01-23T00:57:11.619Z,102130.23
2023-01-23T01:02:14.238Z,102138.40
2023-01-23T01:07:16.979Z,102148.08
2023-01-23T01:12:20.129Z,102140.28
2023-01-23T01:17:22.841Z,102134.92
2023-01-23T01:22:25.573Z,102132.20
2023-01-23T01:27:29.199Z,102136.39
2023-01-23T01:32:31.860Z,102143.80
2023-01-23T01:37:36.033Z,102150.14
2023-01-23T01:43:03.766Z,102153.69
2023-01-23T01:48:06.399Z,102161.35
2023-01-23T01:53:11.197Z,102164.93
2023-01-23T01:58:14.195Z,102162.19
2023-01-23T02:03:19.382Z,102164.81
2023-01-23T02:08:21.998Z,102167.92
2023-01-23T02:13:36.010Z,102172.66
2023-01-23T02:18:44.552Z,102178.62
2023-01-23T02:24:12.847Z,102186.41
2023-01-23T02:29:16.467Z,102198.65
2023-01-23T02:34:19.286Z,102205.52
2023-01-23T02:39:22.181Z,102208.33
2023-01-23T02:44:29.683Z,102210.92
2023-01-23T02:49:32.615Z,102211.29
2023-01-23T02:54:35.603Z,102211.31
2023-01-23T02:59:56.717Z,102209.55
2023-01-23T03:04:59.275Z,102209.34
2023-01-23T03:10:03.623Z,102208.31
2023-01-23T03:15:06.842Z,102206.88
2023-01-23T03:20:10.813Z,102215.01
2023-01-23T03:25:13.415Z,102210.91
2023-01-23T03:30:17.105Z,102212.95
2023-01-23T03:35:20.398Z,102213.80
2023-01-23T03:40:43.706Z,102212.77
2023-01-23T03:45:48.529Z,102212.81
2023-01-23T03:50:51.712Z,102211.80
2023-01-23T03:55:54.405Z,102209.30
2023-01-23T04:00:57.208Z,102218.52
2023-01-23T04:06:00.278Z,102225.38
2023-01-23T04:11:04.997Z,102239.65
2023-01-23T04:16:08.181Z,102251.97
2023-01-23T04:21:11.217Z,102257.72
2023-01-23T04:26:13.862Z,102259.09
2023-01-23T04:31:16.681Z,102253.40
2023-01-23T04:36:19.392Z,102249.33
2023-01-23T04:41:25.722Z,102246.48
2023-01-23T04:46:28.271Z,102246.11
2023-01-23T04:51:30.820Z,102252.60
2023-01-23T04:56:33.663Z,102261.92
2023-01-23T05:01:36.693Z,102269.30
2023-01-23T05:06:39.606Z,102275.23
2023-01-23T05:11:42.240Z,102276.42
2023-01-23T05:16:44.810Z,102277.83
2023-01-23T05:21:48.258Z,102283.13
2023-01-23T05:26:54.984Z,102285.35
2023-01-23T05:31:57.588Z,102284.73
2023-01-23T05:37:00.197Z,102285.44
2023-01-23T05:42:02.833Z,102293.01
2023-01-23T05:47:05.470Z,102298.16
2023-01-23T05:52:08.602Z,102299.66
2023-01-23T05:57:11.239Z,102301.26
2023-01-23T06:02:14.025Z,102305.35
2023-01-23T06:07:18.930Z,102308.17
2023-01-23T06:12:21.602Z,102323.08
2023-01-23T06:17:24.383Z,102331.53
2023-01-23T06:22:27.036Z,102329.27
2023-01-23T06:27:29.682Z,102333.38
2023-01-23T06:32:32.242Z,102343.81
2023-01-23T06:37:34.863Z,102348.30
2023-01-23T06:42:37.484Z,102345.96
2023-01-23T06:47:40.080Z,102357.27
2023-01-23T06:52:49.387Z,102366.23
2023-01-23T06:57:52.193Z,102371.93
2023-01-23T07:02:58.788Z,102383.18
2023-01-23T07:08:04.119Z,102391.61
2023-01-23T07:13:09.760Z,102390.08
2023-01-23T07:18:12.986Z,102387.33
2023-01-23T07:23:15.658Z,102397.63
2023-01-23T07:28:18.690Z,102392.77
2023-01-23T07:33:23.633Z,102395.84
2023-01-23T07:38:26.544Z,102391.15
2023-01-23T07:43:29.104Z,102394.15
2023-01-23T07:48:31.878Z,102397.15
2023-01-23T07:53:34.561Z,102397.54
2023-01-23T07:58:37.273Z,102395.64
2023-01-23T08:03:39.989Z,102399.77
2023-01-23T08:08:42.779Z,102401.74
2023-01-23T08:13:49.218Z,102403.52
2023-01-23T08:18:52.072Z,102405.69
2023-01-23T08:23:54.760Z,102415.38
2023-01-23T08:28:57.664Z,102418.85
2023-01-23T08:34:00.637Z,102416.45
2023-01-23T08:39:04.574Z,102418.29
2023-01-23T08:44:07.746Z,102420.91
2023-01-23T08:49:11.451Z,102422.70
2023-01-23T08:54:14.421Z,102424.30
2023-01-23T08:59:17.308Z,102423.98
2023-01-23T09:04:20.084Z,102428.35
2023-01-23T09:09:22.976Z,102441.11
2023-01-23T09:14:25.782Z,102442.34
2023-01-23T09:19:31.425Z,102442.98
2023-01-23T09:24:34.141Z,102440.27
2023-01-23T09:29:37.323Z,102434.85
2023-01-23T09:34:40.076Z,102438.38
2023-01-23T09:39:46.052Z,102440.16
2023-01-23T09:44:53.239Z,102442.34
2023-01-23T09:50:01.949Z,102441.34
2023-01-23T09:55:15.566Z,102434.23
2023-01-23T10:00:27.668Z,102428.48
2023-01-23T10:05:41.325Z,102426.05
2023-01-23T10:11:05.967Z,102421.74
2023-01-23T10:16:29.689Z,102413.38
2023-01-23T10:22:22.581Z,102405.96
2023-01-23T10:27:47.552Z,102403.20
2023-01-23T10:33:09.143Z,102409.95
2023-01-23T10:38:49.745Z,102420.44
2023-01-23T10:43:55.001Z,102418.70
2023-01-23T10:49:01.231Z,102425.45
2023-01-23T10:54:33.235Z,102423.30
2023-01-23T10:59:53.715Z,102419.72
2023-01-23T11:04:56.832Z,102419.48
2023-01-23T11:10:21.495Z,102417.00
2023-01-23T11:15:28.685Z,102412.14
2023-01-23T11:20:38.717Z,102413.57
2023-01-23T11:25:47.173Z,102416.22
2023-01-23T11:31:28.652Z,102419.90
2023-01-23T11:36:38.278Z,102420.64
2023-01-23T11:41:41.093Z,102425.70
2023-01-23T11:46:49.857Z,102422.67
2023-01-23T11:52:11.963Z,102418.39
2023-01-23T11:57:43.682Z,102418.98
2023-01-23T12:03:11.133Z,102413.17
2023-01-23T12:08:46.004Z,102418.79
2023-01-23T12:14:15.991Z,102415.12
2023-01-23T12:19:43.548Z,102417.35
2023-01-23T12:25:04.880Z,102414.89
2023-01-23T12:30:45.420Z,102412.26
2023-01-23T12:36:00.728Z,102415.47
2023-01-23T12:41:13.371Z,102425.11
2023-01-23T12:46:22.265Z,102423.45
2023-01-23T12:51:35.258Z,102418.52
2023-01-23T12:56:39.963Z,102416.29
2023-01-23T13:01:55.480Z,102417.98
2023-01-23T13:07:19.546Z,102423.96
2023-01-23T13:12:28.076Z,102424.48
2023-01-23T13:17:35.123Z,102429.40
2023-01-23T13:22:38.574Z,102439.64
2023-01-23T13:28:01.913Z,102439.10
2023-01-23T13:33:07.201Z,102435.06
2023-01-23T13:38:37.561Z,102442.28
2023-01-23T13:44:05.039Z,102446.46
2023-01-23T14:21:48.120Z,102460.94
2023-01-23T14:26:53.582Z,102458.02
2023-01-23T14:31:56.356Z,102460.08
2023-01-23T14:37:11.782Z,102457.66
2023-01-23T14:42:33.861Z,102458.08
2023-01-23T14:47:45.472Z,102458.05
2023-01-23T14:52:58.465Z,102462.08
2023-01-23T14:58:03.745Z,102456.26
2023-01-23T15:03:08.354Z,102467.64
2023-01-23T15:08:32.287Z,102466.64
2023-01-23T15:14:01.543Z,102469.33
2023-01-23T15:19:20.063Z,102471.59
2023-01-23T15:24:27.745Z,102469.29
2023-01-23T15:29:32.301Z,102472.52
2023-01-23T15:34:35.021Z,102478.41
2023-01-23T15:39:51.834Z,102476.73
2023-01-23T15:44:55.114Z,102472.91
2023-01-23T15:50:01.543Z,102474.83
2023-01-23T15:55:05.412Z,102472.03
2023-01-23T16:00:16.412Z,102473.27
2023-01-23T16:05:27.073Z,102473.02
2023-01-23T16:10:33.770Z,102473.02
2023-01-23T16:15:39.526Z,102472.58
2023-01-23T16:20:45.388Z,102477.21
2023-01-23T16:25:49.413Z,102474.59
2023-01-23T16:30:53.510Z,102475.92
2023-01-23T16:35:56.389Z,102477.48
2023-01-23T16:41:01.581Z,102481.23
2023-01-23T16:46:04.515Z,102481.66
2023-01-23T16:51:15.043Z,102482.48
2023-01-23T16:56:24.520Z,102485.58
2023-01-23T17:01:30.869Z,102490.02
2023-01-23T17:06:34.763Z,102490.24
2023-01-23T17:11:42.933Z,102490.59
2023-01-23T17:16:48.210Z,102492.45
2023-01-23T17:21:51.831Z,102493.39
2023-01-23T17:26:54.692Z,102493.39
2023-01-23T17:31:59.159Z,102500.75
2023-01-23T17:37:02.998Z,102503.38
2023-01-23T17:42:05.764Z,102507.81
2023-01-23T17:47:17.394Z,102507.11
2023-01-23T17:52:21.623Z,102508.06
2023-01-23T17:57:24.191Z,102511.33
2023-01-23T18:02:28.908Z,102513.52
2023-01-23T18:07:34.494Z,102508.42
2023-01-23T18:12:48.651Z,102510.48
2023-01-23T18:18:11.033Z,102506.30
2023-01-23T18:23:14.264Z,102508.98
2023-01-23T18:28:19.548Z,102513.47
2023-01-23T18:33:50.521Z,102510.92
2023-01-23T18:39:18.367Z,102510.71
2023-01-23T18:44:28.406Z,102505.60
2023-01-23T18:49:33.188Z,102512.04
2023-01-23T18:55:12.644Z,102513.16
2023-01-23T19:00:28.970Z,102511.27
2023-01-23T19:05:33.607Z,102512.42
2023-01-23T19:10:48.934Z,102518.64
2023-01-23T19:16:30.339Z,102526.44
2023-01-23T19:21:33.093Z,102529.79
2023-01-23T19:26:38.609Z,102531.34
2023-01-23T19:31:45.332Z,102524.02
2023-01-23T19:36:50.094Z,102522.25
2023-01-23T19:41:53.553Z,102525.04
2023-01-23T19:46:57.042Z,102519.98
2023-01-23T19:51:59.840Z,102515.02
2023-01-23T19:57:02.696Z,102509.70
2023-01-23T20:02:17.547Z,102510.75
2023-01-23T20:07:20.241Z,102512.02
2023-01-23T20:12:23.126Z,102514.21
2023-01-23T20:17:25.980Z,102515.30
2023-01-23T20:22:30.027Z,102517.23
2023-01-23T20:27:32.952Z,102520.21
2023-01-23T20:32:35.614Z,102526.14
2023-01-23T20:37:38.638Z,102533.92
2023-01-23T20:42:41.371Z,102538.70
2023-01-23T20:47:44.133Z,102536.90
2023-01-23T20:53:04.757Z,102537.50
2023-01-23T20:58:27.060Z,102537.67
2023-01-23T21:03:29.937Z,102544.83
2023-01-23T21:08:34.340Z,102555.59
2023-01-23T21:13:37.120Z,102561.05
2023-01-23T21:18:44.475Z,102568.42
2023-01-23T21:23:51.529Z,102569.09
2023-01-23T21:28:56.214Z,102564.90
2023-01-23T21:34:04.379Z,102564.13
2023-01-23T21:39:10.185Z,102565.75
2023-01-23T21:44:13.631Z,102560.89
2023-01-23T21:49:16.774Z,102557.05
2023-01-23T21:54:20.252Z,102551.27
2023-01-23T21:59:22.934Z,102543.48
2023-01-23T22:04:25.768Z,102540.67
2023-01-23T22:09:28.746Z,102539.69
2023-01-23T22:14:32.360Z,102539.88
2023-01-23T22:19:35.097Z,102535.62
2023-01-23T22:24:38.200Z,102529.15
2023-01-23T22:29:40.838Z,102525.16
2023-01-23T22:34:43.544Z,102526.42
2023-01-23T22:39:47.949Z,102526.23
2023-01-23T22:44:53.863Z,102521.77
2023-01-23T22:49:56.788Z,102524.75
2023-01-23T22:54:59.409Z,102523.77
2023-01-23T23:00:06.206Z,102525.64
2023-01-23T23:05:10.232Z,102528.77
2023-01-23T23:10:13.292Z,102538.34
2023-01-23T23:15:16.168Z,102537.28
2023-01-23T23:20:18.822Z,102536.42
2023-01-23T23:25:21.893Z,102541.82
2023-01-23T23:30:24.762Z,102543.86
2023-01-23T23:35:27.361Z,102541.55
2023-01-23T23:41:26.865Z,102538.69
2023-01-23T23:46:29.633Z,102535.05
2023-01-23T23:51:32.286Z,102539.34
2023-01-23T23:56:35.089Z,102537.06
